Time;durP1;ratioP1;P1;durP2;ratioP2;P2;SDS_P1;SDS_P2;PMS_P1;PMS_P2;Temp;Humidity;BMP_temperature;BMP_pressure;BME280_temperature;BME280_humidity;BME280_pressure;Samples;Min_cycle;Max_cycle;Signal;HPM_P1;HPM_P2
2023/02/28 00:00:00;;;;;;;6.05;3.28;;;;;;;1.33;77.22;102624.78;6096834;23;20250;-71
2023/02/28 00:02:41;;;;;;;4.97;2.55;;;;;;;1.42;76.97;102618.84;6098481;23;20601;-70
2023/02/28 00:05:20;;;;;;;6.35;4.00;;;;;;;1.47;76.98;102622.06;6096314;23;20573;-71
2023/02/28 00:08:15;;;;;;;6.60;3.28;;;;;;;1.36;77.04;102621.91;6075134;23;20191;-73
2023/02/28 00:10:52;;;;;;;8.50;2.92;;;;;;;1.36;77.47;102622.75;6095980;23;20221;-70
2023/02/28 00:13:24;;;;;;;5.45;2.97;;;;;;;1.31;77.50;102622.19;6096066;23;20199;-66
2023/02/28 00:16:04;;;;;;;7.53;3.00;;;;;;;1.24;77.68;102632.44;6096464;23;20172;-68
2023/02/28 00:18:38;;;;;;;10.98;3.25;;;;;;;1.26;77.86;102627.84;6095686;23;20716;-70
2023/02/28 00:21:10;;;;;;;10.95;4.85;;;;;;;1.31;77.70;102617.72;6095583;23;20209;-68
2023/02/28 00:23:46;;;;;;;3.85;2.88;;;;;;;1.38;77.22;102618.19;6095943;23;20175;-67
2023/02/28 00:26:18;;;;;;;7.55;4.47;;;;;;;1.41;77.76;102625.97;6071853;23;20219;-67
2023/02/28 00:28:53;;;;;;;4.18;3.50;;;;;;;1.31;77.68;102628.41;6071913;23;20176;-69
2023/02/28 00:31:25;;;;;;;4.60;2.50;;;;;;;1.38;77.75;102628.00;6072102;23;20573;-67
2023/02/28 00:34:00;;;;;;;6.53;3.13;;;;;;;1.41;77.72;102633.13;6071951;23;20609;-68
2023/02/28 00:36:34;;;;;;;5.50;3.05;;;;;;;1.45;77.66;102632.00;6072225;23;20194;-67
2023/02/28 00:39:19;;;;;;;6.78;4.25;;;;;;;1.34;77.47;102626.50;6072537;23;20258;-69
2023/02/28 00:41:50;;;;;;;18.10;13.70;;;;;;;1.39;77.86;102633.25;6071443;23;20172;-71
2023/02/28 00:44:22;;;;;;;9.48;6.45;;;;;;;1.41;77.71;102636.66;6096248;23;20170;-68
2023/02/28 00:46:57;;;;;;;17.17;8.93;;;;;;;1.42;77.65;102630.38;6072900;23;20192;-67
2023/02/28 00:49:31;;;;;;;10.38;7.05;;;;;;;1.47;77.47;102632.72;6073346;23;20195;-68
2023/02/28 00:52:10;;;;;;;7.75;4.82;;;;;;;1.39;77.87;102635.06;6049995;23;20201;-67
2023/02/28 00:54:43;;;;;;;13.77;11.88;;;;;;;1.46;77.78;102628.34;6072888;23;20175;-66
2023/02/28 00:57:13;;;;;;;17.23;8.82;;;;;;;1.48;77.50;102629.13;6071962;23;20584;-68
2023/02/28 00:59:44;;;;;;;16.35;11.95;;;;;;;1.43;77.64;102632.09;6072095;23;20231;-67
2023/02/28 01:02:17;;;;;;;11.10;7.03;;;;;;;1.35;78.24;102639.75;6072166;23;20171;-67
2023/02/28 01:04:51;;;;;;;7.35;5.57;;;;;;;1.35;78.46;102631.75;6071270;23;20571;-67
2023/02/28 01:07:24;;;;;;;8.27;4.53;;;;;;;1.40;77.71;102626.97;6071882;23;20196;-68
2023/02/28 01:10:00;;;;;;;16.77;6.53;;;;;;;1.45;77.48;102624.00;6071631;23;20173;-68
2023/02/28 01:12:33;;;;;;;15.68;7.65;;;;;;;1.48;77.05;102637.13;6072054;23;20167;-68
2023/02/28 01:15:07;;;;;;;12.70;8.77;;;;;;;1.48;76.93;102629.13;6071875;23;20563;-68
2023/02/28 01:17:38;;;;;;;10.63;5.50;;;;;;;1.44;77.46;102632.94;6071269;23;20687;-68
2023/02/28 01:20:12;;;;;;;26.85;13.60;;;;;;;1.47;77.17;102627.41;6047721;23;20187;-68
2023/02/28 01:22:46;;;;;;;12.30;7.40;;;;;;;1.46;77.03;102625.69;6070952;23;20198;-68
2023/02/28 01:25:20;;;;;;;7.57;4.70;;;;;;;1.30;77.77;102620.53;6087733;23;20175;-68
2023/02/28 01:27:54;;;;;;;9.80;7.25;;;;;;;1.21;77.82;102621.94;6095248;23;20219;-66
2023/02/28 01:30:25;;;;;;;9.27;5.22;;;;;;;1.19;77.95;102620.34;6095344;23;20226;-68
2023/02/28 01:32:57;;;;;;;9.73;5.90;;;;;;;1.08;78.73;102618.38;6095238;23;20203;-67
2023/02/28 01:35:33;;;;;;;7.03;3.90;;;;;;;0.98;79.22;102617.25;6095464;23;20262;-68
2023/02/28 01:38:04;;;;;;;6.00;5.00;;;;;;;0.91;79.32;102610.63;6095246;23;20199;-66
2023/02/28 01:40:55;;;;;;;6.90;3.75;;;;;;;0.80;79.76;102613.09;6097044;23;20148;-67
2023/02/28 01:43:27;;;;;;;11.88;4.38;;;;;;;0.81;80.38;102612.16;6095229;23;20167;-67
2023/02/28 01:46:01;;;;;;;7.80;3.50;;;;;;;0.66;80.33;102613.13;6095049;23;20230;-66
2023/02/28 01:48:38;;;;;;;6.97;3.70;;;;;;;0.58;81.12;102610.09;6094910;23;20198;-67
2023/02/28 01:51:24;;;;;;;8.90;3.97;;;;;;;0.66;81.39;102607.78;6095948;23;20667;-68
2023/02/28 01:54:03;;;;;;;4.95;3.25;;;;;;;0.77;80.54;102610.66;6071696;23;20671;-67
2023/02/28 01:56:46;;;;;;;6.65;3.72;;;;;;;0.85;80.11;102613.66;6097970;23;20273;-68
2023/02/28 01:59:27;;;;;;;5.32;4.00;;;;;;;0.84;80.01;102611.94;6097194;23;20200;-68
2023/02/28 02:02:01;;;;;;;11.57;4.13;;;;;;;0.78;80.69;102612.34;6095422;23;20179;-69
2023/02/28 02:04:41;;;;;;;6.30;3.28;;;;;;;0.70;81.27;102607.50;6095057;23;20202;-68
2023/02/28 02:07:18;;;;;;;8.10;3.50;;;;;;;0.75;81.27;102612.53;6100696;23;20298;-66
2023/02/28 02:09:48;;;;;;;5.45;3.90;;;;;;;0.71;81.39;102613.69;6101285;23;20170;-68
2023/02/28 02:12:30;;;;;;;5.72;3.58;;;;;;;0.73;81.32;102611.75;6076093;23;20191;-67
2023/02/28 02:15:11;;;;;;;12.80;4.80;;;;;;;0.78;80.53;102601.66;6098011;23;20255;-67
2023/02/28 02:17:47;;;;;;;19.77;3.72;;;;;;;0.67;81.33;102612.19;6094944;23;20187;-68
2023/02/28 02:21:10;;;;;;;6.10;3.90;;;;;;;0.64;81.25;102604.34;6095406;23;20178;-67
2023/02/28 02:24:22;;;;;;;9.63;3.92;;;;;;;0.40;82.31;102612.06;6092413;23;20175;-68
2023/02/28 02:27:34;;;;;;;6.00;4.00;;;;;;;0.36;83.22;102608.75;6071457;23;20191;-66
2023/02/28 02:30:35;;;;;;;8.27;4.70;;;;;;;0.21;83.13;102607.03;6096353;23;20179;-68
2023/02/28 02:33:41;;;;;;;7.55;4.05;;;;;;;0.05;83.96;102608.06;6070498;23;20246;-68
2023/02/28 02:36:21;;;;;;;5.45;3.85;;;;;;;0.09;85.15;102610.44;6096424;23;20182;-67
2023/02/28 02:38:55;;;;;;;9.35;4.60;;;;;;;0.08;86.26;102611.38;6070759;23;20605;-68
2023/02/28 02:41:33;;;;;;;6.88;4.78;;;;;;;-0.14;86.23;102610.94;6092050;23;20177;-67
2023/02/28 02:44:16;;;;;;;193.25;53.28;;;;;;;0.02;86.79;102608.22;6070998;23;20504;-68
2023/02/28 02:46:48;;;;;;;113.55;34.22;;;;;;;0.13;85.41;102611.97;6095536;23;20194;-68
2023/02/28 02:49:24;;;;;;;60.60;26.73;;;;;;;0.15;86.31;102602.06;6072265;23;20183;-68
2023/02/28 02:52:05;;;;;;;58.35;18.90;;;;;;;-0.18;85.99;102610.28;6073893;23;20194;-68
2023/02/28 02:54:40;;;;;;;10.05;5.50;;;;;;;0.02;86.67;102611.75;6097443;23;20203;-67
2023/02/28 02:57:19;;;;;;;54.22;17.67;;;;;;;-0.12;85.79;102611.72;6072712;23;20199;-68
2023/02/28 02:59:53;;;;;;;48.50;16.00;;;;;;;-0.20;86.93;102617.53;6099919;23;20179;-68
2023/02/28 03:02:25;;;;;;;44.33;17.02;;;;;;;-0.08;87.16;102610.59;6100534;23;20639;-67
2023/02/28 03:05:04;;;;;;;198.60;52.78;;;;;;;-0.10;86.44;102613.34;6099855;23;20175;-68
2023/02/28 03:07:36;;;;;;;16.98;9.60;;;;;;;-0.29;87.36;102620.69;6073409;23;20195;-69
2023/02/28 03:10:35;;;;;;;39.53;15.68;;;;;;;-0.27;88.51;102615.28;6073101;23;20190;-67
2023/02/28 03:13:22;;;;;;;21.48;10.88;;;;;;;-0.30;87.66;102616.34;6097840;23;20277;-68
2023/02/28 03:16:14;;;;;;;20.73;12.32;;;;;;;-0.43;88.19;102618.84;6075660;23;20175;-68
2023/02/28 03:19:01;;;;;;;32.03;16.58;;;;;;;-0.64;88.91;102614.78;6099595;23;20175;-67
2023/02/28 03:21:43;;;;;;;13.00;7.32;;;;;;;-0.73;89.73;102617.13;6051724;23;20189;-67
2023/02/28 03:24:25;;;;;;;16.08;8.10;;;;;;;-0.56;90.60;102628.50;6077801;23;20181;-67
2023/02/28 03:27:15;;;;;;;15.75;8.15;;;;;;;-0.57;90.28;102628.56;6075948;23;20253;-67
2023/02/28 03:29:55;;;;;;;17.23;10.35;;;;;;;-0.81;90.77;102627.31;6101420;23;20173;-66
2023/02/28 03:32:34;;;;;;;12.75;7.82;;;;;;;-0.84;91.46;102631.00;6103766;23;20245;-68
2023/02/28 03:35:13;;;;;;;18.48;10.82;;;;;;;-0.70;91.59;102623.13;6099161;23;20197;-69
2023/02/28 03:37:46;;;;;;;8.05;5.20;;;;;;;-0.66;91.85;102627.31;6097885;23;20190;-68
2023/02/28 03:40:24;;;;;;;6.78;4.72;;;;;;;-0.91;91.14;102629.63;6075789;23;20481;-68
2023/02/28 03:42:59;;;;;;;12.05;7.05;;;;;;;-1.06;91.76;102631.34;6100557;23;20173;-67
2023/02/28 03:45:37;;;;;;;19.55;11.57;;;;;;;-0.94;93.04;102629.81;6097058;23;20238;-67
2023/02/28 03:48:15;;;;;;;11.82;7.53;;;;;;;-0.82;93.11;102629.09;6096205;23;20200;-67
2023/02/28 03:50:49;;;;;;;6.07;5.15;;;;;;;-0.77;92.99;102629.72;6096924;23;20174;-66
2023/02/28 03:53:28;;;;;;;10.68;6.20;;;;;;;-0.87;92.59;102628.50;6096565;23;20194;-67
2023/02/28 03:56:09;;;;;;;7.57;5.30;;;;;;;-0.79;92.29;102628.09;6096695;23;20174;-65
2023/02/28 03:58:57;;;;;;;9.43;5.50;;;;;;;-0.83;92.19;102627.44;6096152;23;20521;-67
2023/02/28 04:01:32;;;;;;;10.85;6.68;;;;;;;-0.95;92.55;102628.97;6095858;23;20185;-68
2023/02/28 04:04:04;;;;;;;11.43;6.63;;;;;;;-0.99;92.75;102634.53;6095890;23;20177;-68
2023/02/28 04:06:36;;;;;;;9.15;5.22;;;;;;;-1.06;93.35;102628.69;6095867;23;20652;-67
2023/02/28 04:09:11;;;;;;;11.57;5.70;;;;;;;-0.98;93.64;102628.28;6097653;23;20170;-67
2023/02/28 04:11:46;;;;;;;9.35;5.18;;;;;;;-0.97;93.77;102633.50;6095854;23;20194;-67
2023/02/28 04:14:18;;;;;;;7.97;5.45;;;;;;;-1.06;93.34;102630.47;6098116;23;20158;-66
2023/02/28 04:16:50;;;;;;;6.80;4.63;;;;;;;-1.15;93.63;102626.53;6098185;23;20190;-66
2023/02/28 04:19:26;;;;;;;7.05;5.07;;;;;;;-1.09;94.50;102631.53;6096354;23;20201;-67
2023/02/28 04:22:06;;;;;;;10.55;5.40;;;;;;;-1.09;94.52;102631.53;6096176;23;20193;-67
2023/02/28 04:24:42;;;;;;;12.00;5.47;;;;;;;-1.05;94.42;102632.22;6096201;23;20632;-68
2023/02/28 04:27:18;;;;;;;7.03;5.47;;;;;;;-1.07;94.65;102634.09;6070481;23;20194;-66
2023/02/28 04:29:49;;;;;;;9.40;4.75;;;;;;;-1.06;94.29;102636.66;6096140;23;20174;-65
2023/02/28 04:32:22;;;;;;;7.00;4.65;;;;;;;-1.10;93.83;102639.56;6095883;23;20228;-66
2023/02/28 04:34:56;;;;;;;9.90;5.05;;;;;;;-1.06;94.39;102638.44;6096098;23;20174;-66
2023/02/28 04:37:34;;;;;;;11.55;5.30;;;;;;;-1.14;93.97;102651.31;6096005;23;20220;-67
2023/02/28 04:40:07;;;;;;;8.35;5.40;;;;;;;-1.20;93.87;102636.56;6097699;23;20158;-67
2023/02/28 04:42:42;;;;;;;9.23;5.63;;;;;;;-1.24;95.05;102636.81;6096267;23;20181;-66
2023/02/28 04:45:14;;;;;;;14.70;6.20;;;;;;;-1.20;94.58;102643.69;6095840;23;20189;-66
2023/02/28 04:47:45;;;;;;;6.68;5.95;;;;;;;-1.21;93.95;102641.97;6095505;23;20195;-66
2023/02/28 04:50:18;;;;;;;8.07;4.78;;;;;;;-1.12;94.88;102636.16;6096217;23;20200;-65
2023/02/28 04:52:50;;;;;;;10.40;5.95;;;;;;;-1.19;93.99;102645.41;6096828;23;20189;-66
2023/02/28 04:55:24;;;;;;;10.80;5.63;;;;;;;-1.28;94.84;102643.25;6096757;23;20201;-66
2023/02/28 04:57:59;;;;;;;7.43;4.60;;;;;;;-1.38;95.45;102641.09;6095785;23;20222;-66
2023/02/28 05:00:30;;;;;;;8.93;5.38;;;;;;;-1.43;95.56;102651.09;6097104;23;20174;-66
2023/02/28 05:03:10;;;;;;;8.05;4.80;;;;;;;-1.53;96.64;102652.53;6096550;23;20559;-67
2023/02/28 05:05:47;;;;;;;8.05;5.55;;;;;;;-1.45;96.44;102655.63;6101492;23;20181;-69
2023/02/28 05:08:18;;;;;;;10.10;6.50;;;;;;;-1.33;95.84;102659.44;6101689;23;20194;-67
2023/02/28 05:10:52;;;;;;;10.45;7.25;;;;;;;-1.55;96.27;102657.06;6100954;23;20166;-67
2023/02/28 05:13:31;;;;;;;10.35;6.07;;;;;;;-1.00;96.56;102652.28;6096384;23;20216;-67
2023/02/28 05:16:07;;;;;;;8.88;6.53;;;;;;;-1.02;95.76;102661.28;6097383;23;20272;-67
2023/02/28 05:18:44;;;;;;;15.85;7.20;;;;;;;-1.15;95.43;102654.91;6096243;23;20177;-69
2023/02/28 05:21:30;;;;;;;10.65;5.93;;;;;;;-1.18;95.43;102663.06;6096590;23;20178;-68
2023/02/28 05:24:06;;;;;;;11.15;5.97;;;;;;;-1.43;95.64;102664.38;6095885;23;20181;-66
2023/02/28 05:26:41;;;;;;;11.25;6.68;;;;;;;-1.63;95.67;102667.22;6095555;23;20278;-68
2023/02/28 05:29:19;;;;;;;11.60;6.50;;;;;;;-1.44;97.00;102673.28;6094925;23;20185;-66
2023/02/28 05:31:57;;;;;;;16.52;9.45;;;;;;;-1.54;96.62;102665.88;6095968;23;20192;-66
2023/02/28 05:34:30;;;;;;;18.13;10.95;;;;;;;-1.51;96.43;102671.91;6095371;23;20515;-67
2023/02/28 05:37:01;;;;;;;16.48;10.88;;;;;;;-1.63;96.63;102669.88;6095459;23;20198;-67
2023/02/28 05:39:41;;;;;;;15.45;9.07;;;;;;;-1.57;96.81;102672.22;6095485;23;20582;-67
2023/02/28 05:42:13;;;;;;;7.80;6.57;;;;;;;-1.43;96.13;102668.84;6073891;23;20202;-66
2023/02/28 05:44:48;;;;;;;14.77;8.57;;;;;;;-1.46;95.84;102677.84;6096128;23;20695;-67
2023/02/28 05:47:24;;;;;;;10.32;6.45;;;;;;;-1.46;96.12;102675.19;6096050;23;20662;-66
2023/02/28 05:49:59;;;;;;;11.85;7.15;;;;;;;-1.44;95.25;102677.72;6097063;23;20205;-66
2023/02/28 05:52:34;;;;;;;11.45;5.80;;;;;;;-1.43;95.08;102682.09;6097859;23;20637;-67
2023/02/28 05:55:12;;;;;;;8.65;7.22;;;;;;;-1.39;95.37;102681.00;6098524;23;20178;-66
2023/02/28 05:57:46;;;;;;;13.15;8.90;;;;;;;-1.32;95.23;102682.41;6073835;23;20244;-66
2023/02/28 06:00:24;;;;;;;11.57;7.75;;;;;;;-1.47;94.90;102689.38;6096949;23;20178;-66
2023/02/28 06:03:01;;;;;;;10.40;6.80;;;;;;;-1.45;94.85;102681.31;6096546;23;20564;-66
2023/02/28 06:05:35;;;;;;;12.93;7.65;;;;;;;-1.51;95.78;102687.84;6098618;23;20154;-68
2023/02/28 06:08:08;;;;;;;12.98;7.28;;;;;;;-1.55;95.70;102680.13;6097221;23;20191;-68
2023/02/28 06:10:39;;;;;;;12.80;8.43;;;;;;;-1.49;96.39;102691.25;6095962;23;20175;-68
2023/02/28 06:13:15;;;;;;;11.73;7.30;;;;;;;-1.49;96.08;102679.78;6095814;23;20194;-68
2023/02/28 06:15:50;;;;;;;13.70;8.40;;;;;;;-1.49;95.34;102693.91;6096104;23;20178;-68
2023/02/28 06:18:25;;;;;;;9.45;7.10;;;;;;;-1.43;95.88;102685.63;6095751;23;20280;-69
2023/02/28 06:20:59;;;;;;;17.35;8.55;;;;;;;-1.30;95.94;102691.13;6095434;23;20174;-68
2023/02/28 06:23:32;;;;;;;15.35;8.18;;;;;;;-1.37;96.22;102685.31;6094660;23;20181;-68
2023/02/28 06:26:07;;;;;;;12.07;7.90;;;;;;;-1.35;96.04;102699.34;6070996;23;20177;-69
2023/02/28 06:28:39;;;;;;;14.50;8.85;;;;;;;-1.44;95.61;102699.84;6070899;23;20200;-68
2023/02/28 06:31:14;;;;;;;12.48;7.80;;;;;;;-1.39;96.40;102699.59;6072601;23;20162;-69
2023/02/28 06:33:47;;;;;;;12.30;6.93;;;;;;;-1.44;96.08;102705.16;6072568;23;20193;-68
2023/02/28 06:36:22;;;;;;;19.77;9.80;;;;;;;-1.46;96.87;102711.50;6071395;23;20649;-68
2023/02/28 06:39:02;;;;;;;11.80;8.75;;;;;;;-1.35;96.05;102703.78;6096522;23;20174;-67
2023/02/28 06:41:58;;;;;;;21.23;9.30;;;;;;;-1.27;95.36;102717.56;6096919;23;20173;-68
2023/02/28 06:45:25;;;;;;;11.73;7.78;;;;;;;-1.25;94.96;102717.44;6066553;23;20222;-68
2023/02/28 06:48:06;;;;;;;11.85;8.20;;;;;;;-1.28;95.10;102721.13;6098217;23;20194;-67
2023/02/28 06:50:38;;;;;;;12.45;7.60;;;;;;;-1.27;94.55;102720.22;6073473;23;20615;-67
2023/02/28 06:53:12;;;;;;;19.50;8.65;;;;;;;-1.28;94.79;102721.13;6072750;23;20174;-68
2023/02/28 06:55:43;;;;;;;14.48;8.10;;;;;;;-1.15;94.37;102726.66;6072749;23;20179;-67
2023/02/28 06:58:19;;;;;;;15.35;9.10;;;;;;;-0.88;93.11;102725.16;6072602;23;20198;-68
2023/02/28 07:00:54;;;;;;;20.27;8.45;;;;;;;-0.79;92.25;102729.97;6098892;23;20619;-69
2023/02/28 07:03:29;;;;;;;14.30;9.25;;;;;;;-0.80;92.27;102733.56;6073064;23;20175;-67
2023/02/28 07:06:18;;;;;;;13.50;8.90;;;;;;;-0.53;91.10;102729.38;6072877;23;20174;-67
2023/02/28 07:08:52;;;;;;;14.77;9.27;;;;;;;-0.40;90.32;102728.69;6072536;23;20174;-68
2023/02/28 07:11:30;;;;;;;12.90;9.20;;;;;;;-0.37;89.19;102726.72;6098352;23;20196;-68
2023/02/28 07:14:04;;;;;;;16.75;10.45;;;;;;;-0.31;89.47;102725.50;6050072;23;20245;-68
2023/02/28 07:16:36;;;;;;;17.98;8.93;;;;;;;-0.34;89.45;102723.03;6072592;23;20270;-69
2023/02/28 07:19:23;;;;;;;16.27;10.07;;;;;;;-0.30;89.78;102733.41;6072520;23;20173;-67
2023/02/28 07:21:58;;;;;;;15.13;10.52;;;;;;;-0.06;88.99;102726.69;6072579;23;20213;-68
2023/02/28 07:24:31;;;;;;;11.60;9.23;;;;;;;0.02;88.48;102733.34;6097883;23;20175;-69
2023/02/28 07:27:04;;;;;;;18.23;10.52;;;;;;;0.09;87.78;102730.25;6097640;23;20187;-67
2023/02/28 07:29:35;;;;;;;16.70;11.70;;;;;;;0.26;87.33;102732.75;6096764;23;20176;-68
2023/02/28 07:32:07;;;;;;;16.13;10.55;;;;;;;0.51;85.09;102732.16;6096466;23;20527;-68
2023/02/28 07:34:43;;;;;;;17.10;10.32;;;;;;;0.53;84.36;102740.06;6096476;23;20183;-68
2023/02/28 07:37:22;;;;;;;21.27;12.05;;;;;;;0.69;83.29;102736.34;6071973;23;20250;-67
2023/02/28 07:39:57;;;;;;;13.90;8.63;;;;;;;0.69;83.56;102731.03;6098005;23;20190;-68
2023/02/28 07:42:29;;;;;;;14.77;8.98;;;;;;;0.86;82.57;102732.66;6072148;23;20257;-67
2023/02/28 07:45:19;;;;;;;12.98;8.00;;;;;;;1.01;81.59;102737.06;6072343;23;20246;-69
2023/02/28 07:47:53;;;;;;;12.70;9.10;;;;;;;1.02;81.21;102746.75;6071592;23;20664;-69
2023/02/28 07:50:30;;;;;;;12.02;8.02;;;;;;;1.18;79.72;102744.84;6072087;23;20168;-68
2023/02/28 07:53:04;;;;;;;14.85;8.70;;;;;;;1.24;79.52;102743.59;6097282;23;20199;-68
2023/02/28 07:55:56;;;;;;;11.25;9.00;;;;;;;1.44;78.03;102734.31;6096289;23;20195;-68
2023/02/28 07:58:31;;;;;;;10.50;8.88;;;;;;;1.44;77.26;102737.00;6070698;23;20203;-70
2023/02/28 08:01:14;;;;;;;13.35;7.93;;;;;;;1.65;76.14;102743.59;6071545;23;20171;-68
2023/02/28 08:03:50;;;;;;;14.95;9.38;;;;;;;1.72;76.30;102740.44;6073065;23;20180;-70
2023/02/28 08:06:28;;;;;;;13.25;10.60;;;;;;;1.91;75.26;102745.44;6076173;23;20197;-70
2023/02/28 08:09:01;;;;;;;12.23;8.48;;;;;;;2.00;73.78;102742.16;6073222;23;20659;-69
2023/02/28 08:11:34;;;;;;;12.20;7.70;;;;;;;2.17;72.23;102741.91;6072792;23;20163;-71
2023/02/28 08:14:07;;;;;;;14.90;7.68;;;;;;;2.38;70.63;102738.72;6072451;23;20184;-69
2023/02/28 08:16:43;;;;;;;10.90;8.02;;;;;;;2.51;69.72;102744.94;6071678;23;20286;-70
2023/02/28 08:19:14;;;;;;;13.18;9.20;;;;;;;2.63;69.01;102738.75;6071804;23;20179;-71
2023/02/28 08:21:52;;;;;;;15.73;8.20;;;;;;;2.68;68.72;102736.59;6071492;23;20262;-70
2023/02/28 08:24:30;;;;;;;12.63;7.63;;;;;;;2.73;67.54;102731.78;6097140;23;20643;-68
2023/02/28 08:27:02;;;;;;;10.77;7.60;;;;;;;3.01;65.92;102736.91;6071283;23;20196;-69
2023/02/28 08:29:39;;;;;;;8.35;7.43;;;;;;;3.01;63.38;102739.59;6071900;23;20171;-69
2023/02/28 08:32:15;;;;;;;12.30;8.98;;;;;;;3.31;62.74;102731.19;6071927;23;20226;-71
2023/02/28 08:35:02;;;;;;;7.78;4.78;;;;;;;3.56;58.54;102735.63;6071771;23;20511;-70
2023/02/28 08:37:40;;;;;;;8.50;6.00;;;;;;;3.67;56.88;102740.22;6073520;23;20273;-70
2023/02/28 08:44:27;;;;;;;7.45;3.70;;;;;;;3.91;50.76;102741.94;6098628;23;20636;-70
2023/02/28 08:47:13;;;;;;;10.43;4.13;;;;;;;3.88;50.02;102739.47;6072235;23;20268;-69
2023/02/28 08:49:48;;;;;;;10.05;4.57;;;;;;;4.00;49.27;102739.53;6071523;23;20223;-69
2023/02/28 08:52:22;;;;;;;6.70;2.78;;;;;;;4.00;47.75;102737.69;6071724;23;20171;-70
2023/02/28 08:54:55;;;;;;;5.15;2.60;;;;;;;4.08;48.19;102737.97;6071591;23;20223;-70
2023/02/28 08:57:29;;;;;;;2.80;2.50;;;;;;;4.31;46.56;102741.59;6071396;23;20728;-70
2023/02/28 09:00:04;;;;;;;3.65;2.15;;;;;;;4.35;46.53;102741.25;6097220;23;20156;-69
2023/02/28 09:03:32;;;;;;;2.45;1.98;;;;;;;4.42;44.30;102741.63;6071801;23;20639;-69
2023/02/28 09:06:05;;;;;;;3.50;2.60;;;;;;;4.40;43.51;102743.59;6071423;23;20179;-69
2023/02/28 09:08:44;;;;;;;3.30;1.75;;;;;;;4.41;44.10;102744.41;6047850;23;20171;-70
2023/02/28 09:11:24;;;;;;;5.45;1.95;;;;;;;4.45;45.18;102737.88;6071672;23;20176;-70
2023/02/28 09:14:03;;;;;;;9.05;3.33;;;;;;;4.65;44.85;102735.34;6096949;23;20587;-69
2023/02/28 09:16:44;;;;;;;3.92;2.60;;;;;;;4.67;43.74;102744.13;6071366;23;20214;-71
2023/02/28 09:19:18;;;;;;;3.10;2.30;;;;;;;4.40;43.76;102738.22;6097281;23;20179;-71
2023/02/28 09:21:50;;;;;;;4.22;1.95;;;;;;;4.35;44.13;102735.03;6070993;23;20279;-71
2023/02/28 09:24:22;;;;;;;4.80;2.58;;;;;;;4.41;44.18;102739.91;6096020;23;20176;-69
2023/02/28 09:26:55;;;;;;;4.25;2.97;;;;;;;4.44;44.71;102733.47;6071254;23;20192;-70
2023/02/28 09:29:37;;;;;;;3.85;2.25;;;;;;;4.75;43.99;102735.47;6096317;23;20585;-70
2023/02/28 09:32:08;;;;;;;6.57;2.20;;;;;;;4.65;43.42;102740.69;6070907;23;20165;-68
2023/02/28 09:34:40;;;;;;;2.97;1.90;;;;;;;4.68;43.44;102732.44;6071306;23;20172;-70
2023/02/28 09:37:12;;;;;;;4.60;1.85;;;;;;;4.70;43.47;102729.63;6096425;23;20211;-69
2023/02/28 09:39:45;;;;;;;4.07;1.98;;;;;;;4.76;43.19;102732.69;6071300;23;20168;-74
2023/02/28 09:42:33;;;;;;;4.60;2.60;;;;;;;4.92;43.76;102734.16;6096204;23;20565;-69
2023/02/28 09:45:16;;;;;;;4.15;2.00;;;;;;;4.91;42.56;102749.41;6070901;23;20165;-69
2023/02/28 09:47:53;;;;;;;5.75;2.10;;;;;;;4.63;43.31;102734.63;6096546;23;20224;-70
2023/02/28 09:50:35;;;;;;;3.90;1.85;;;;;;;4.77;43.60;102736.22;6072366;23;20171;-69
2023/02/28 09:53:16;;;;;;;3.55;2.10;;;;;;;4.57;43.90;102750.31;6050597;23;20191;-70
2023/02/28 09:55:52;;;;;;;2.15;1.70;;;;;;;4.63;43.13;102741.81;6074910;23;20187;-71
2023/02/28 09:58:38;;;;;;;2.42;1.40;;;;;;;4.67;43.38;102740.59;6073581;23;20200;-70
2023/02/28 10:02:09;;;;;;;4.90;2.53;;;;;;;4.69;43.44;102744.88;6072538;23;20172;-67
2023/02/28 10:04:51;;;;;;;2.70;1.70;;;;;;;5.03;42.97;102742.25;6068993;23;20172;-69
2023/02/28 10:11:04;;;;;;;3.67;1.92;;;;;;;5.01;42.82;102747.72;6071361;23;20676;-68
2023/02/28 10:13:55;;;;;;;6.35;2.10;;;;;;;5.15;42.66;102749.28;6072101;23;20172;-67
2023/02/28 10:16:33;;;;;;;5.80;2.08;;;;;;;5.11;42.49;102746.00;6072161;23;20192;-69
2023/02/28 10:19:11;;;;;;;6.30;1.85;;;;;;;5.03;42.91;102748.47;6072211;23;20178;-69
2023/02/28 10:21:48;;;;;;;3.10;1.55;;;;;;;4.92;42.66;102750.28;6098160;23;20225;-68
2023/02/28 10:24:25;;;;;;;2.45;1.70;;;;;;;4.70;42.50;102743.88;6097994;23;20200;-68
2023/02/28 10:27:03;;;;;;;2.97;1.85;;;;;;;4.79;42.82;102742.34;6096922;23;20184;-69
2023/02/28 10:29:36;;;;;;;2.30;1.35;;;;;;;5.00;43.06;102747.81;6071895;23;20183;-68
2023/02/28 10:32:08;;;;;;;4.88;1.52;;;;;;;4.94;43.04;102748.34;6071730;23;20175;-68
2023/02/28 10:34:41;;;;;;;2.95;1.90;;;;;;;5.13;42.85;102740.53;6071503;23;20692;-68
2023/02/28 10:41:07;;;;;;;3.03;1.77;;;;;;;5.16;42.49;102748.31;6071212;23;20586;-69
2023/02/28 10:43:44;;;;;;;7.97;4.88;;;;;;;5.02;42.94;102745.88;6096970;23;20205;-69
2023/02/28 10:46:29;;;;;;;18.20;12.07;;;;;;;5.23;42.44;102746.84;6070947;23;20502;-68
2023/02/28 10:49:08;;;;;;;3.92;2.05;;;;;;;5.11;42.67;102742.47;6095341;23;20260;-69
2023/02/28 10:51:42;;;;;;;3.15;1.98;;;;;;;5.27;42.53;102729.53;6071231;23;20172;-69
2023/02/28 10:54:24;;;;;;;3.67;1.55;;;;;;;5.15;42.76;102742.09;6071476;23;20180;-70
2023/02/28 10:57:19;;;;;;;2.60;1.45;;;;;;;5.07;42.57;102735.66;6071977;23;20275;-69
2023/02/28 10:59:57;;;;;;;2.30;1.85;;;;;;;5.07;42.78;102730.28;6072114;23;20250;-68
2023/02/28 11:02:42;;;;;;;7.20;6.00;;;;;;;5.40;42.17;102724.88;6072141;23;20176;-69
2023/02/28 11:05:32;;;;;;;3.25;1.23;;;;;;;5.30;42.25;102725.75;6073486;23;20576;-67
2023/02/28 11:08:12;;;;;;;4.47;1.77;;;;;;;5.45;41.38;102722.69;6073468;23;20276;-70
2023/02/28 11:10:55;;;;;;;4.15;2.30;;;;;;;5.30;42.08;102712.31;6072472;23;20172;-68
2023/02/28 11:13:34;;;;;;;2.83;2.22;;;;;;;5.40;41.89;102714.16;6097308;23;20160;-68
2023/02/28 11:16:07;;;;;;;4.85;2.28;;;;;;;5.63;41.68;102707.75;6071668;23;20251;-68
2023/02/28 11:18:49;;;;;;;3.65;1.90;;;;;;;5.68;41.00;102702.84;6047855;23;20262;-69
2023/02/28 11:21:28;;;;;;;1.60;1.15;;;;;;;5.29;41.69;102705.25;6071137;23;20183;-68
2023/02/28 11:24:06;;;;;;;2.47;1.30;;;;;;;5.24;42.00;102697.56;6071870;23;20156;-71
2023/02/28 11:26:45;;;;;;;4.28;1.83;;;;;;;5.38;42.04;102694.59;6071028;23;20228;-69
2023/02/28 11:29:23;;;;;;;2.60;2.17;;;;;;;5.51;41.85;102695.34;6070515;23;20180;-69
2023/02/28 11:32:16;;;;;;;3.38;2.30;;;;;;;5.51;41.75;102698.03;6071783;23;20174;-69
2023/02/28 11:35:04;;;;;;;6.50;2.83;;;;;;;5.80;42.12;102694.75;6072030;23;20610;-69
2023/02/28 11:37:38;;;;;;;9.23;2.50;;;;;;;5.98;41.44;102690.56;6070887;23;20255;-68
2023/02/28 11:40:16;;;;;;;5.03;2.00;;;;;;;5.94;41.07;102697.19;6071762;23;20625;-69
2023/02/28 11:43:08;;;;;;;2.17;1.65;;;;;;;5.72;41.87;102697.22;6072766;23;20173;-69
2023/02/28 11:45:51;;;;;;;5.10;2.92;;;;;;;5.83;41.57;102695.34;6072342;23;20176;-69
2023/02/28 11:48:27;;;;;;;4.57;2.33;;;;;;;5.69;41.39;102693.81;6071997;23;20196;-69
2023/02/28 11:51:17;;;;;;;5.43;2.63;;;;;;;5.73;41.82;102699.78;6072274;23;20176;-69
2023/02/28 11:54:26;;;;;;;2.38;2.03;;;;;;;5.86;41.11;102704.97;6097845;23;20513;-69
2023/02/28 11:57:10;;;;;;;5.78;2.30;;;;;;;5.89;41.25;102699.41;6072049;23;20205;-68
2023/02/28 11:59:56;;;;;;;5.32;2.95;;;;;;;5.80;41.61;102708.19;6097922;23;20157;-68
2023/02/28 12:02:33;;;;;;;5.28;2.85;;;;;;;5.75;41.57;102703.19;6097794;23;20162;-69
2023/02/28 12:05:25;;;;;;;3.75;2.47;;;;;;;5.67;41.46;102697.59;6071906;23;20203;-69
2023/02/28 12:08:12;;;;;;;5.57;2.70;;;;;;;5.97;41.51;102691.53;6071683;23;20508;-70
2023/02/28 12:10:58;;;;;;;5.30;2.95;;;;;;;5.92;41.40;102699.13;6071965;23;20211;-69
2023/02/28 12:13:39;;;;;;;3.63;2.47;;;;;;;5.72;42.04;102699.88;6072222;23;20236;-69
2023/02/28 12:16:36;;;;;;;6.68;3.10;;;;;;;5.83;42.20;102689.13;6071900;23;20212;-69
2023/02/28 12:19:19;;;;;;;2.75;2.45;;;;;;;5.99;41.86;102692.28;6071016;23;20507;-69
2023/02/28 12:22:22;;;;;;;9.82;3.72;;;;;;;5.61;41.96;102688.22;6071907;23;20164;-69
2023/02/28 12:25:27;;;;;;;4.18;2.65;;;;;;;5.79;41.93;102682.31;6056577;23;20184;-70
2023/02/28 12:28:01;;;;;;;4.15;2.22;;;;;;;5.93;41.82;102673.97;6094870;23;20188;-68
2023/02/28 12:30:36;;;;;;;2.95;2.22;;;;;;;6.12;41.82;102676.81;6095468;23;20225;-72